Time;durP1;ratioP1;P1;durP2;ratioP2;P2;SDS_P1;SDS_P2;PMS_P1;PMS_P2;Temp;Humidity;BMP_temperature;BMP_pressure;BME280_temperature;BME280_humidity;BME280_pressure;Samples;Min_cycle;Max_cycle;Signal;HPM_P1;HPM_P2
2023/11/27 00:02:03;;;;;;;;;;;;;;;6.68;45.13;101052.59;5041516;28;19917;-82
2023/11/27 00:04:29;;;;;;;;;;;;;;;6.66;45.06;101054.66;5044816;28;20563;-82
2023/11/27 00:06:54;;;;;;;;;;;;;;;6.64;45.43;101051.34;5042012;28;19920;-82
2023/11/27 00:09:19;;;;;;;;;;;;;;;6.62;45.18;101048.09;5041074;28;19983;-82
2023/11/27 00:11:45;;;;;;;;;;;;;;;6.62;45.27;101054.25;5040846;28;19925;-82
2023/11/27 00:14:10;;;;;;;;;;;;;;;6.62;45.39;101059.56;5039670;28;19936;-82
2023/11/27 00:16:35;;;;;;;;;;;;;;;6.62;45.13;101058.75;5044188;28;20008;-82
2023/11/27 00:19:01;;;;;;;;;;;;;;;6.58;45.22;101052.22;5042634;28;19916;-82
2023/11/27 00:21:26;;;;;;;;;;;;;;;6.54;45.24;101062.50;5044379;28;19946;-83
2023/11/27 00:23:51;;;;;;;;;;;;;;;6.49;45.37;101058.84;5043583;28;20162;-82
2023/11/27 00:26:17;;;;;;;;;;;;;;;6.43;45.39;101065.00;5041912;28;20376;-82
2023/11/27 00:28:42;;;;;;;;;;;;;;;6.35;45.40;101064.22;5042256;28;19963;-82
2023/11/27 00:31:09;;;;;;;;;;;;;;;6.34;45.72;101067.91;5044062;28;20408;-82
2023/11/27 00:33:35;;;;;;;;;;;;;;;6.34;45.63;101067.91;5043055;28;20393;-83
2023/11/27 00:36:00;;;;;;;;;;;;;;;6.35;45.53;101074.88;5043580;28;20507;-82
2023/11/27 00:38:26;;;;;;;;;;;;;;;6.32;45.65;101062.00;5039267;28;19921;-82
2023/11/27 00:40:51;;;;;;;;;;;;;;;6.28;45.65;101057.28;5043927;28;19920;-82
2023/11/27 00:43:16;;;;;;;;;;;;;;;6.26;45.66;101044.19;5042787;28;19925;-83
2023/11/27 00:45:42;;;;;;;;;;;;;;;6.25;46.00;101053.22;5041237;28;19924;-82
2023/11/27 00:48:07;;;;;;;;;;;;;;;6.25;45.81;101042.56;5041498;28;19927;-82
2023/11/27 00:50:33;;;;;;;;;;;;;;;6.27;45.76;101045.81;5044990;28;19932;-82
2023/11/27 00:52:58;;;;;;;;;;;;;;;6.27;46.11;101047.69;5041255;28;20096;-83
2023/11/27 00:55:24;;;;;;;;;;;;;;;6.27;45.89;101051.16;5041582;28;19986;-83
2023/11/27 00:57:50;;;;;;;;;;;;;;;6.30;45.99;101049.94;5044677;28;19948;-82
2023/11/27 01:00:17;;;;;;;;;;;;;;;6.32;46.06;101046.03;5041752;28;20000;-83
2023/11/27 01:02:43;;;;;;;;;;;;;;;6.35;45.92;101056.25;5041946;28;20398;-83
2023/11/27 01:05:09;;;;;;;;;;;;;;;6.37;46.15;101050.72;5046090;28;19925;-82
2023/11/27 01:07:34;;;;;;;;;;;;;;;6.41;45.68;101056.41;5046854;28;19935;-82
2023/11/27 01:09:59;;;;;;;;;;;;;;;6.39;45.98;101055.81;5052609;28;19971;-82
2023/11/27 01:12:24;;;;;;;;;;;;;;;6.38;45.96;101046.19;5046870;28;20027;-82
2023/11/27 01:14:50;;;;;;;;;;;;;;;6.39;45.85;101055.81;5049066;28;20340;-83
2023/11/27 01:17:16;;;;;;;;;;;;;;;6.39;46.00;101045.16;5047369;28;20158;-83
2023/11/27 01:19:41;;;;;;;;;;;;;;;6.40;46.15;101049.47;5046955;28;19925;-82
2023/11/27 01:22:07;;;;;;;;;;;;;;;6.40;46.09;101041.47;5047033;28;19924;-82
2023/11/27 01:24:32;;;;;;;;;;;;;;;6.42;46.09;101039.41;5048640;28;20303;-82
2023/11/27 01:26:57;;;;;;;;;;;;;;;6.45;45.97;101041.66;5048683;28;20847;-83
2023/11/27 01:29:23;;;;;;;;;;;;;;;6.46;46.16;101037.94;5048640;28;19924;-83
2023/11/27 01:31:51;;;;;;;;;;;;;;;6.46;46.06;101037.94;5048600;28;19920;-82
2023/11/27 01:34:17;;;;;;;;;;;;;;;6.49;46.15;101040.22;5045522;28;20457;-82
2023/11/27 01:36:43;;;;;;;;;;;;;;;6.49;45.95;101038.38;5048464;28;19929;-82
2023/11/27 01:39:09;;;;;;;;;;;;;;;6.53;46.27;101041.41;5048093;28;20140;-82
2023/11/27 01:41:34;;;;;;;;;;;;;;;6.59;46.05;101049.34;5046511;28;20503;-83
2023/11/27 01:43:59;;;;;;;;;;;;;;;6.64;46.35;101043.38;5047943;28;20108;-83
2023/11/27 01:46:26;;;;;;;;;;;;;;;6.68;46.04;101047.25;5047980;28;19924;-82
2023/11/27 01:48:56;;;;;;;;;;;;;;;6.71;46.00;101033.50;5045169;28;19959;-82
2023/11/27 01:51:25;;;;;;;;;;;;;;;6.71;45.96;101019.38;5043568;28;20609;-83
2023/11/27 01:53:52;;;;;;;;;;;;;;;6.71;46.12;101024.72;5042700;28;20011;-82
2023/11/27 01:56:19;;;;;;;;;;;;;;;6.69;46.09;101016.94;5044182;28;19921;-82
2023/11/27 01:58:46;;;;;;;;;;;;;;;6.68;46.22;101007.31;5046968;28;19920;-83
2023/11/27 02:01:11;;;;;;;;;;;;;;;6.68;46.28;101020.63;5046053;28;19956;-82
2023/11/27 02:03:36;;;;;;;;;;;;;;;6.63;46.15;101021.25;5046011;28;20078;-82
2023/11/27 02:06:02;;;;;;;;;;;;;;;6.60;46.24;101023.53;5046278;28;20320;-82
2023/11/27 02:08:28;;;;;;;;;;;;;;;6.59;46.31;101022.72;5046856;28;19949;-82
2023/11/27 02:10:54;;;;;;;;;;;;;;;6.59;46.41;101021.91;5045652;28;19917;-82
2023/11/27 02:13:19;;;;;;;;;;;;;;;6.60;46.28;101024.34;5043303;28;19943;-82
2023/11/27 02:15:44;;;;;;;;;;;;;;;6.59;46.26;101021.91;5043548;28;19921;-82
2023/11/27 02:18:10;;;;;;;;;;;;;;;6.56;46.28;101025.00;5046171;28;19950;-82
2023/11/27 02:20:35;;;;;;;;;;;;;;;6.56;46.46;101017.84;5049648;28;20498;-82
2023/11/27 02:23:01;;;;;;;;;;;;;;;6.53;46.27;101014.78;5045631;28;19963;-83
2023/11/27 02:25:26;;;;;;;;;;;;;;;6.50;46.46;101016.03;5046665;28;19929;-82
2023/11/27 02:27:52;;;;;;;;;;;;;;;6.50;46.49;101024.03;5044228;28;19924;-82
2023/11/27 02:30:19;;;;;;;;;;;;;;;6.52;46.50;101021.16;5043531;28;19916;-83
2023/11/27 02:32:46;;;;;;;;;;;;;;;6.55;46.60;101018.88;5047750;28;20482;-82
2023/11/27 02:35:11;;;;;;;;;;;;;;;6.57;46.90;101018.66;5044035;28;19948;-82
2023/11/27 02:37:36;;;;;;;;;;;;;;;6.57;46.73;101022.13;5047548;28;20420;-82
2023/11/27 02:40:02;;;;;;;;;;;;;;;6.58;46.51;101018.44;5043946;28;19921;-83
2023/11/27 02:42:28;;;;;;;;;;;;;;;6.59;46.45;101017.41;5046236;28;20299;-82
2023/11/27 02:44:53;;;;;;;;;;;;;;;6.56;46.47;101004.53;5046131;28;19921;-82
2023/11/27 02:47:18;;;;;;;;;;;;;;;6.54;46.75;101009.25;5045568;28;20015;-82
2023/11/27 02:49:44;;;;;;;;;;;;;;;6.54;46.64;101003.09;5044754;28;21474;-82
2023/11/27 02:52:10;;;;;;;;;;;;;;;6.53;46.71;100996.16;5048368;28;20007;-83
2023/11/27 02:54:36;;;;;;;;;;;;;;;6.53;46.78;101006.81;5044678;28;20385;-82
2023/11/27 02:57:03;;;;;;;;;;;;;;;6.52;46.74;101005.19;5045327;28;19925;-82
2023/11/27 02:59:28;;;;;;;;;;;;;;;6.53;46.77;100996.97;5046710;28;20401;-83
2023/11/27 03:01:53;;;;;;;;;;;;;;;6.55;46.76;100994.09;5047961;28;19999;-82
2023/11/27 03:04:19;;;;;;;;;;;;;;;6.58;46.81;100996.31;5045903;28;20286;-82
2023/11/27 03:06:44;;;;;;;;;;;;;;;6.61;46.76;100990.56;5049893;28;20000;-82
2023/11/27 03:09:10;;;;;;;;;;;;;;;6.61;46.85;100990.56;5042828;28;20007;-82
2023/11/27 03:11:36;;;;;;;;;;;;;;;6.63;46.79;100991.16;5049733;28;20320;-82
2023/11/27 03:14:01;;;;;;;;;;;;;;;6.64;46.66;100988.31;5046579;28;19921;-82
2023/11/27 03:16:28;;;;;;;;;;;;;;;6.63;46.57;100985.81;5044501;28;20015;-83
2023/11/27 03:18:53;;;;;;;;;;;;;;;6.63;46.77;100986.63;5043873;28;19917;-82
2023/11/27 03:21:22;;;;;;;;;;;;;;;6.64;46.73;100977.66;5044534;28;19935;-82
2023/11/27 03:23:48;;;;;;;;;;;;;;;6.66;46.83;100980.09;5042114;28;20444;-82
2023/11/27 03:26:13;;;;;;;;;;;;;;;6.66;46.75;100974.78;5041364;28;20016;-82
2023/11/27 03:28:39;;;;;;;;;;;;;;;6.66;46.74;100975.59;5042560;28;20380;-82
2023/11/27 03:31:04;;;;;;;;;;;;;;;6.66;46.63;100974.78;5043396;28;20405;-82
2023/11/27 03:33:30;;;;;;;;;;;;;;;6.64;46.68;100976.81;5043097;28;20489;-82
2023/11/27 03:35:55;;;;;;;;;;;;;;;6.62;47.31;100971.69;5047285;28;19920;-82
2023/11/27 03:38:20;;;;;;;;;;;;;;;6.61;46.65;100974.59;5042333;28;20038;-82
2023/11/27 03:40:46;;;;;;;;;;;;;;;6.54;46.78;100973.81;5048258;28;19927;-82
2023/11/27 03:43:11;;;;;;;;;;;;;;;6.47;46.71;100968.56;5045856;28;19974;-82
2023/11/27 03:45:37;;;;;;;;;;;;;;;6.38;46.98;100961.84;5047250;28;19921;-83
2023/11/27 03:48:05;;;;;;;;;;;;;;;6.34;46.95;100961.47;5042746;28;20007;-82
2023/11/27 03:50:31;;;;;;;;;;;;;;;6.35;46.85;100964.94;5043614;28;19921;-83
2023/11/27 03:52:56;;;;;;;;;;;;;;;6.36;47.10;100967.38;5044390;28;20411;-82
2023/11/27 03:55:24;;;;;;;;;;;;;;;6.39;46.90;100971.47;5044346;28;20070;-82
2023/11/27 03:57:49;;;;;;;;;;;;;;;6.42;47.14;100972.88;5043205;28;19917;-81
2023/11/27 04:00:16;;;;;;;;;;;;;;;6.43;47.00;100974.50;5040768;28;19921;-82
2023/11/27 04:02:42;;;;;;;;;;;;;;;6.42;46.96;100972.88;5044454;28;19913;-82
2023/11/27 04:05:07;;;;;;;;;;;;;;;6.39;46.87;100966.13;5047672;28;19932;-82
2023/11/27 04:07:33;;;;;;;;;;;;;;;6.41;46.77;100968.59;5046597;28;19923;-82
2023/11/27 04:09:58;;;;;;;;;;;;;;;6.39;46.95;100975.97;5044503;28;20369;-82
2023/11/27 04:12:24;;;;;;;;;;;;;;;6.39;46.84;100971.47;5045579;28;19921;-82
2023/11/27 04:14:49;;;;;;;;;;;;;;;6.36;46.78;100983.34;5043917;28;19916;-82
2023/11/27 04:17:14;;;;;;;;;;;;;;;6.34;46.80;100980.09;5043488;28;19921;-81
2023/11/27 04:19:40;;;;;;;;;;;;;;;6.30;46.62;100976.25;5046055;28;19970;-82
2023/11/27 04:22:05;;;;;;;;;;;;;;;6.27;47.00;100973.97;5039364;28;20290;-82
2023/11/27 04:24:30;;;;;;;;;;;;;;;6.22;46.79;100973.00;5049467;28;20377;-82
2023/11/27 04:26:56;;;;;;;;;;;;;;;6.17;47.01;100972.84;5044164;28;19917;-82
2023/11/27 04:29:21;;;;;;;;;;;;;;;6.17;47.03;100971.00;5044185;28;19964;-81
2023/11/27 04:31:47;;;;;;;;;;;;;;;6.15;47.17;100973.06;5040295;28;19921;-82
2023/11/27 04:34:12;;;;;;;;;;;;;;;6.15;47.03;100973.06;5046146;28;19989;-82
2023/11/27 04:36:37;;;;;;;;;;;;;;;6.13;47.16;100959.16;5041546;28;19917;-82
2023/11/27 04:39:03;;;;;;;;;;;;;;;6.09;47.02;100968.56;5046270;28;20043;-82
2023/11/27 04:41:29;;;;;;;;;;;;;;;6.09;46.90;100962.44;5044814;28;19927;-82
2023/11/27 04:43:54;;;;;;;;;;;;;;;6.11;47.07;100963.06;5049619;28;19943;-82
2023/11/27 04:46:19;;;;;;;;;;;;;;;6.09;47.13;100957.09;5048664;28;19963;-82
2023/11/27 04:48:45;;;;;;;;;;;;;;;6.09;47.01;100960.59;5046918;28;20416;-83
2023/11/27 04:51:11;;;;;;;;;;;;;;;6.11;47.01;100955.06;5048338;28;19974;-82
2023/11/27 04:53:37;;;;;;;;;;;;;;;6.11;47.40;100955.06;5049545;28;19932;-82
2023/11/27 04:56:02;;;;;;;;;;;;;;;6.12;47.21;100951.38;5046583;28;19925;-82
2023/11/27 04:58:27;;;;;;;;;;;;;;;6.11;47.10;100950.56;5048181;28;19925;-82
2023/11/27 05:00:53;;;;;;;;;;;;;;;6.12;47.17;100946.88;5048566;28;19916;-82
2023/11/27 05:03:20;;;;;;;;;;;;;;;6.12;47.28;100946.88;5047319;28;19921;-82
2023/11/27 05:05:45;;;;;;;;;;;;;;;6.12;47.25;100941.56;5046201;28;20426;-82
2023/11/27 05:08:10;;;;;;;;;;;;;;;6.14;47.33;100934.19;5049642;28;19921;-82
2023/11/27 05:10:38;;;;;;;;;;;;;;;6.16;47.37;100929.44;5043133;28;19927;-81
2023/11/27 05:13:04;;;;;;;;;;;;;;;6.17;47.41;100933.75;5048518;28;20448;-82
2023/11/27 05:15:30;;;;;;;;;;;;;;;6.19;47.34;100931.69;5042621;28;19979;-82
2023/11/27 05:17:55;;;;;;;;;;;;;;;6.20;47.05;100929.84;5048028;28;20266;-81
2023/11/27 05:20:20;;;;;;;;;;;;;;;6.15;47.34;100922.50;5043195;28;20289;-82
2023/11/27 05:22:46;;;;;;;;;;;;;;;6.11;46.97;100923.97;5051160;28;20381;-82
2023/11/27 05:25:11;;;;;;;;;;;;;;;6.08;47.07;100935.00;5046601;28;20398;-81
2023/11/27 05:27:37;;;;;;;;;;;;;;;6.05;47.17;100933.59;5048071;28;19932;-82
2023/11/27 05:30:02;;;;;;;;;;;;;;;6.01;47.34;100928.94;5044808;28;19927;-82
2023/11/27 05:32:27;;;;;;;;;;;;;;;5.99;47.28;100934.47;5044371;28;19920;-82
2023/11/27 05:34:53;;;;;;;;;;;;;;;5.97;47.31;100927.72;5047510;28;20331;-82
2023/11/27 05:37:18;;;;;;;;;;;;;;;5.96;47.26;100934.06;5048269;28;19986;-81
2023/11/27 05:39:43;;;;;;;;;;;;;;;5.92;47.32;100935.50;5045052;28;19917;-82
2023/11/27 05:42:11;;;;;;;;;;;;;;;5.88;47.53;100934.28;5046608;28;20011;-82
2023/11/27 05:44:37;;;;;;;;;;;;;;;5.85;47.61;100930.19;5046102;28;19921;-82
2023/11/27 05:47:03;;;;;;;;;;;;;;;5.81;47.47;100923.69;5045345;28;19924;-82
2023/11/27 05:49:30;;;;;;;;;;;;;;;5.83;47.69;100929.59;5046687;28;19956;-81
2023/11/27 05:51:56;;;;;;;;;;;;;;;5.84;47.71;100930.41;5048049;28;19924;-81
2023/11/27 05:54:21;;;;;;;;;;;;;;;5.86;47.69;100928.34;5042693;28;19925;-82
2023/11/27 05:56:47;;;;;;;;;;;;;;;5.89;47.68;100930.59;5048076;28;19974;-82
2023/11/27 05:59:13;;;;;;;;;;;;;;;5.90;47.52;100924.28;5051158;28;19939;-81
2023/11/27 06:01:39;;;;;;;;;;;;;;;5.91;47.54;100925.91;5044372;28;19917;-82
2023/11/27 06:04:04;;;;;;;;;;;;;;;5.89;47.58;100930.59;5042857;28;19923;-82
2023/11/27 06:06:29;;;;;;;;;;;;;;;5.88;47.67;100923.63;5047692;28;19963;-82
2023/11/27 06:08:55;;;;;;;;;;;;;;;5.86;47.47;100928.34;5048015;28;19964;-81
2023/11/27 06:11:20;;;;;;;;;;;;;;;5.83;47.84;100928.78;5041463;28;19921;-82
2023/11/27 06:13:45;;;;;;;;;;;;;;;5.83;47.64;100928.78;5044718;28;20432;-81
2023/11/27 06:16:11;;;;;;;;;;;;;;;5.86;48.01;100936.34;5043883;28;20389;-81
2023/11/27 06:18:37;;;;;;;;;;;;;;;5.89;47.90;100927.94;5043177;28;19978;-82
2023/11/27 06:21:06;;;;;;;;;;;;;;;5.92;47.54;100938.97;5047183;28;19926;-81
2023/11/27 06:23:32;;;;;;;;;;;;;;;5.91;47.68;100923.25;5045812;28;19924;-81
2023/11/27 06:25:57;;;;;;;;;;;;;;;5.89;47.29;100933.25;5046683;28;20011;-82
2023/11/27 06:28:22;;;;;;;;;;;;;;;5.86;47.60;100936.34;5043552;28;20019;-82
2023/11/27 06:30:50;;;;;;;;;;;;;;;5.85;47.48;100930.19;5044013;28;20420;-81
2023/11/27 06:33:15;;;;;;;;;;;;;;;5.83;47.67;100926.94;5046272;28;20558;-81
2023/11/27 06:35:41;;;;;;;;;;;;;;;5.83;47.72;100931.44;5040988;28;19924;-80
2023/11/27 06:38:06;;;;;;;;;;;;;;;5.84;47.83;100917.94;5042258;28;19924;-82
2023/11/27 06:40:31;;;;;;;;;;;;;;;5.84;47.85;100930.41;5042770;28;19920;-82
2023/11/27 06:42:57;;;;;;;;;;;;;;;5.84;47.84;100930.41;5041568;28;20584;-81
2023/11/27 06:45:22;;;;;;;;;;;;;;;5.83;47.79;100939.44;5041469;28;20043;-81
2023/11/27 06:47:48;;;;;;;;;;;;;;;5.80;47.79;100937.19;5043109;28;20101;-82
2023/11/27 06:50:13;;;;;;;;;;;;;;;5.78;47.86;100939.25;5045546;28;20445;-81
2023/11/27 06:52:39;;;;;;;;;;;;;;;5.73;47.81;100932.69;5038883;28;20010;-81
2023/11/27 06:55:04;;;;;;;;;;;;;;;5.74;47.91;100930.84;5039659;28;20288;-81
2023/11/27 06:57:30;;;;;;;;;;;;;;;5.78;48.21;100933.94;5042699;28;21121;-81
2023/11/27 06:59:55;;;;;;;;;;;;;;;5.77;48.12;100933.13;5042031;28;19929;-81
2023/11/27 07:02:20;;;;;;;;;;;;;;;5.81;48.35;100928.19;5039438;28;20050;-81
2023/11/27 07:04:46;;;;;;;;;;;;;;;5.84;47.83;100925.09;5040112;28;20281;-81
2023/11/27 07:07:12;;;;;;;;;;;;;;;5.84;47.87;100925.09;5041310;28;20632;-81
2023/11/27 07:09:37;;;;;;;;;;;;;;;5.83;47.83;100915.50;5044376;28;20331;-83
2023/11/27 07:12:03;;;;;;;;;;;;;;;5.82;48.20;100919.19;5039915;28;20397;-81
2023/11/27 07:14:28;;;;;;;;;;;;;;;5.81;48.23;100912.22;5039774;28;19991;-81
2023/11/27 07:16:54;;;;;;;;;;;;;;;5.88;48.28;100913.00;5041736;28;20035;-81
2023/11/27 07:19:20;;;;;;;;;;;;;;;5.91;48.20;100909.94;5045675;28;19924;-81
2023/11/27 07:21:45;;;;;;;;;;;;;;;5.93;48.07;100902.59;5049526;28;19921;-81
2023/11/27 07:24:10;;;;;;;;;;;;;;;5.97;48.20;100896.63;5045029;28;20471;-81
2023/11/27 07:26:37;;;;;;;;;;;;;;;6.03;48.24;100894.94;5046208;28;20373;-81
2023/11/27 07:29:03;;;;;;;;;;;;;;;6.09;47.98;100904.72;5047406;28;20391;-81
2023/11/27 07:31:31;;;;;;;;;;;;;;;6.09;48.16;100902.06;5042114;28;19918;-81
2023/11/27 07:33:56;;;;;;;;;;;;;;;6.12;48.22;100901.66;5047273;28;19917;-81
2023/11/27 07:36:22;;;;;;;;;;;;;;;6.16;48.18;100892.22;5047126;28;19935;-81
2023/11/27 07:38:48;;;;;;;;;;;;;;;6.20;48.01;100896.06;5044395;28;20404;-81
2023/11/27 07:41:14;;;;;;;;;;;;;;;6.23;48.22;100892.97;5048496;28;19916;-81
2023/11/27 07:43:39;;;;;;;;;;;;;;;6.29;48.15;100889.47;5046036;28;19927;-81
2023/11/27 07:46:10;;;;;;;;;;;;;;;6.39;48.05;100890.81;5044695;28;19916;-81
2023/11/27 07:48:37;;;;;;;;;;;;;;;6.46;47.94;100891.56;5035744;28;19923;-81
2023/11/27 07:51:05;;;;;;;;;;;;;;;6.51;47.67;100897.06;5046450;28;20458;-82
2023/11/27 07:53:31;;;;;;;;;;;;;;;6.56;47.95;100889.22;5040696;28;19979;-81
2023/11/27 07:55:56;;;;;;;;;;;;;;;6.58;47.80;100884.50;5049020;28;20389;-81
2023/11/27 07:58:21;;;;;;;;;;;;;;;6.64;47.62;100887.13;5046233;28;19928;-82
2023/11/27 08:00:47;;;;;;;;;;;;;;;6.67;48.03;100885.88;5042385;28;19956;-81
2023/11/27 08:03:12;;;;;;;;;;;;;;;6.72;47.80;100895.84;5040271;28;20011;-81
2023/11/27 08:05:38;;;;;;;;;;;;;;;6.74;48.01;100891.94;5044291;28;19920;-82
2023/11/27 08:08:04;;;;;;;;;;;;;;;6.74;47.75;100891.13;5044350;28;19928;-81
2023/11/27 08:10:29;;;;;;;;;;;;;;;6.75;47.97;100896.22;5044300;28;19928;-82
2023/11/27 08:12:55;;;;;;;;;;;;;;;6.79;47.91;100894.75;5046133;28;20092;-81
2023/11/27 08:15:20;;;;;;;;;;;;;;;6.86;47.86;100892.03;5044105;28;19930;-82
2023/11/27 08:17:46;;;;;;;;;;;;;;;6.92;47.71;100886.63;5045738;28;20573;-81
2023/11/27 08:20:15;;;;;;;;;;;;;;;6.97;47.58;100891.31;5040894;28;20289;-81
2023/11/27 08:22:41;;;;;;;;;;;;;;;7.03;47.77;100884.28;5044635;28;20261;-82
2023/11/27 08:25:10;;;;;;;;;;;;;;;7.09;47.69;100884.22;5046756;28;20342;-82
2023/11/27 08:27:42;;;;;;;;;;;;;;;7.15;47.38;100874.50;5040100;28;20476;-81
2023/11/27 08:30:11;;;;;;;;;;;;;;;7.17;47.24;100881.25;5043337;28;19925;-81
2023/11/27 08:32:36;;;;;;;;;;;;;;;7.22;47.35;100867.28;5041066;28;19928;-82
2023/11/27 08:35:04;;;;;;;;;;;;;;;7.23;47.59;100863.56;5043553;28;19939;-82
2023/11/27 08:37:35;;;;;;;;;;;;;;;7.22;47.66;100861.94;5042886;28;19999;-81
2023/11/27 08:40:01;;;;;;;;;;;;;;;7.21;47.43;100865.66;5045001;28;20397;-82
2023/11/27 08:42:26;;;;;;;;;;;;;;;7.20;47.62;100856.84;5045585;28;20016;-81
2023/11/27 08:44:52;;;;;;;;;;;;;;;7.19;47.37;100862.41;5043527;28;19921;-81
2023/11/27 08:47:18;;;;;;;;;;;;;;;7.20;47.64;100858.69;5041064;28;19920;-81
2023/11/27 08:49:43;;;;;;;;;;;;;;;7.25;47.96;100862.31;5043416;28;19938;-82
2023/11/27 08:52:08;;;;;;;;;;;;;;;7.34;47.44;100864.66;5044403;28;20003;-82
2023/11/27 08:54:34;;;;;;;;;;;;;;;7.37;47.71;100869.56;5042500;28;19932;-82
2023/11/27 08:56:59;;;;;;;;;;;;;;;7.38;47.58;100871.19;5042083;28;19924;-81
2023/11/27 08:59:25;;;;;;;;;;;;;;;7.36;47.41;100874.09;5043353;28;20581;-82
2023/11/27 09:01:51;;;;;;;;;;;;;;;7.34;47.55;100876.13;5044954;28;20008;-82
2023/11/27 09:04:18;;;;;;;;;;;;;;;7.36;47.57;100874.09;5043662;28;19925;-82
2023/11/27 09:06:44;;;;;;;;;;;;;;;7.40;47.74;100874.44;5043387;28;20382;-82
2023/11/27 09:09:09;;;;;;;;;;;;;;;7.45;47.42;100875.38;5047842;28;20522;-81
2023/11/27 09:11:34;;;;;;;;;;;;;;;7.51;47.55;100871.81;5040715;28;20469;-82
2023/11/27 09:14:00;;;;;;;;;;;;;;;7.56;47.36;100871.16;5041757;28;19931;-82
2023/11/27 09:16:25;;;;;;;;;;;;;;;7.61;47.65;100870.47;5040952;28;19921;-82
2023/11/27 09:18:50;;;;;;;;;;;;;;;7.65;47.37;100867.13;5047505;28;19920;-82
2023/11/27 09:21:16;;;;;;;;;;;;;;;7.69;47.31;100862.16;5043511;28;19924;-82
2023/11/27 09:23:41;;;;;;;;;;;;;;;7.68;47.14;100860.53;5034931;28;19917;-81
2023/11/27 09:26:07;;;;;;;;;;;;;;;7.69;47.10;100856.81;5044775;28;20312;-81
2023/11/27 09:28:32;;;;;;;;;;;;;;;7.78;47.30;100850.16;5042214;28;19921;-82
2023/11/27 09:30:57;;;;;;;;;;;;;;;7.87;47.00;100846.09;5049234;28;19921;-82
2023/11/27 09:33:23;;;;;;;;;;;;;;;7.96;47.41;100836.75;5046233;28;20408;-82
2023/11/27 09:35:48;;;;;;;;;;;;;;;8.10;47.56;100838.16;5046095;28;19967;-82
2023/11/27 09:38:13;;;;;;;;;;;;;;;8.30;47.25;100831.69;5050450;28;19917;-82
2023/11/27 09:40:40;;;;;;;;;;;;;;;8.44;46.99;100831.28;5046746;28;19936;-82
2023/11/27 09:43:05;;;;;;;;;;;;;;;8.53;46.90;100818.38;5048665;28;19924;-82
2023/11/27 09:45:31;;;;;;;;;;;;;;;8.63;46.82;100818.63;5044520;28;19921;-82
2023/11/27 09:47:57;;;;;;;;;;;;;;;8.76;46.82;100820.22;5048219;28;19917;-82
2023/11/27 09:50:22;;;;;;;;;;;;;;;8.90;46.42;100820.78;5043661;28;19924;-82
2023/11/27 09:53:06;;;;;;;;;;;;;;;9.09;46.50;100819.59;5050333;28;19956;-82
2023/11/27 09:55:35;;;;;;;;;;;;;;;9.32;46.58;100813.34;5048448;28;19921;-82
2023/11/27 09:58:01;;;;;;;;;;;;;;;9.52;45.85;100813.75;5047876;28;19924;-82
2023/11/27 10:00:27;;;;;;;;;;;;;;;9.70;45.77;100807.41;5047576;28;19917;-82
2023/11/27 10:02:53;;;;;;;;;;;;;;;9.90;45.54;100815.78;5043959;28;19928;-82
2023/11/27 10:05:21;;;;;;;;;;;;;;;10.06;45.48;100811.50;5043639;28;20020;-83
2023/11/27 10:07:49;;;;;;;;;;;;;;;10.23;45.24;100808.81;5044817;28;19924;-82
2023/11/27 10:10:17;;;;;;;;;;;;;;;10.45;44.97;100806.22;5043914;28;19916;-82
2023/11/27 10:12:46;;;;;;;;;;;;;;;10.65;44.55;100801.16;5048962;28;20479;-82
2023/11/27 10:15:15;;;;;;;;;;;;;;;10.84;44.64;100815.09;5044340;28;19991;-83
2023/11/27 10:17:42;;;;;;;;;;;;;;;11.00;44.67;100808.06;5047739;28;19939;-83
2023/11/27 10:20:12;;;;;;;;;;;;;;;11.11;43.88;100807.91;5047135;28;19921;-83
2023/11/27 10:22:38;;;;;;;;;;;;;;;11.23;43.95;100807.78;5044874;28;19924;-83
2023/11/27 10:25:07;;;;;;;;;;;;;;;11.34;44.00;100806.03;5046610;28;20001;-83
2023/11/27 10:27:33;;;;;;;;;;;;;;;11.46;43.55;100810.19;5049422;28;19917;-83
2023/11/27 10:30:00;;;;;;;;;;;;;;;11.52;43.65;100804.88;5047557;28;19917;-83
2023/11/27 10:32:27;;;;;;;;;;;;;;;11.56;43.65;100806.81;5046002;28;20054;-83
2023/11/27 10:34:52;;;;;;;;;;;;;;;11.59;43.57;100803.63;5048474;28;19932;-83
2023/11/27 10:37:18;;;;;;;;;;;;;;;11.66;43.73;100798.84;5043813;28;19921;-84
2023/11/27 10:39:48;;;;;;;;;;;;;;;11.75;43.63;100797.34;5047785;28;19917;-83
2023/11/27 10:42:14;;;;;;;;;;;;;;;11.88;43.32;100792.66;5043819;28;19940;-84
2023/11/27 10:44:44;;;;;;;;;;;;;;;11.97;43.21;100786.53;5050465;28;20320;-83
2023/11/27 10:47:10;;;;;;;;;;;;;;;11.99;43.48;100791.66;5047368;28;20277;-83
2023/11/27 10:49:39;;;;;;;;;;;;;;;11.99;42.89;100791.66;5046266;28;19932;-82
2023/11/27 10:52:08;;;;;;;;;;;;;;;11.94;42.93;100792.44;5044682;28;19939;-84
2023/11/27 10:54:35;;;;;;;;;;;;;;;11.87;42.88;100788.34;5045941;28;20390;-83
2023/11/27 10:57:02;;;;;;;;;;;;;;;11.86;43.57;100778.69;5045386;28;19923;-83
2023/11/27 10:59:29;;;;;;;;;;;;;;;11.89;43.27;100773.59;5043237;28;19924;-83
2023/11/27 11:01:59;;;;;;;;;;;;;;;11.96;43.12;100773.38;5046982;28;20011;-83
2023/11/27 11:04:24;;;;;;;;;;;;;;;12.01;43.26;100765.34;5044372;28;20019;-83
2023/11/27 11:06:52;;;;;;;;;;;;;;;12.10;43.11;100764.63;5043520;28;20582;-83
2023/11/27 11:09:19;;;;;;;;;;;;;;;12.14;43.19;100759.56;5053696;28;20012;-83
2023/11/27 11:11:48;;;;;;;;;;;;;;;12.17;42.90;100755.53;5043005;28;19924;-83
2023/11/27 11:14:15;;;;;;;;;;;;;;;12.21;42.74;100754.78;5045356;28;19920;-83
2023/11/27 11:16:51;;;;;;;;;;;;;;;12.27;42.89;100753.75;5042890;28;19917;-83
2023/11/27 11:19:21;;;;;;;;;;;;;;;12.34;42.94;100754.31;5042272;28;19928;-83
2023/11/27 11:21:55;;;;;;;;;;;;;;;12.42;42.25;100746.84;5044316;28;19925;-83
2023/11/27 11:24:39;;;;;;;;;;;;;;;12.46;42.20;100742.56;5040881;28;19924;-83
2023/11/27 11:27:17;;;;;;;;;;;;;;;12.46;42.21;100750.63;5038977;28;19943;-83
2023/11/27 11:29:44;;;;;;;;;;;;;;;12.48;42.32;100751.16;5043420;28;20361;-83
2023/11/27 11:32:18;;;;;;;;;;;;;;;12.48;42.05;100738.53;5040440;28;19924;-84
2023/11/27 11:34:49;;;;;;;;;;;;;;;12.51;42.50;100727.28;5042342;28;19960;-83
2023/11/27 11:37:17;;;;;;;;;;;;;;;12.58;42.35;100729.75;5041656;28;19970;-83
2023/11/27 11:39:45;;;;;;;;;;;;;;;12.67;42.20;100734.34;5042218;28;20027;-83
2023/11/27 11:42:17;;;;;;;;;;;;;;;12.77;42.19;100719.34;5041162;28;19921;-83
2023/11/27 11:45:01;;;;;;;;;;;;;;;12.83;42.21;100718.28;5033388;28;19921;-83
2023/11/27 11:47:33;;;;;;;;;;;;;;;12.86;42.18;100712.38;5038880;28;19921;-83
2023/11/27 11:50:25;;;;;;;;;;;;;;;12.85;41.87;100716.13;5042197;28;19925;-83
2023/11/27 11:52:55;;;;;;;;;;;;;;;12.78;42.00;100707.50;5037474;28;19935;-84
2023/11/27 11:55:33;;;;;;;;;;;;;;;12.72;42.06;100703.97;5037572;28;19946;-83
2023/11/27 11:58:08;;;;;;;;;;;;;;;12.70;42.17;100690.00;5038234;28;19921;-84
2023/11/27 12:00:52;;;;;;;;;;;;;;;12.66;41.97;100692.41;5042744;28;19967;-84
2023/11/27 12:03:20;;;;;;;;;;;;;;;12.67;42.02;100687.84;5039345;28;20019;-84
2023/11/27 12:05:53;;;;;;;;;;;;;;;12.68;42.18;100676.81;5040669;28;19921;-84
2023/11/27 12:08:23;;;;;;;;;;;;;;;12.71;42.15;100676.28;5043419;28;19916;-84
2023/11/27 12:10:51;;;;;;;;;;;;;;;12.71;42.21;100678.16;5042224;28;19921;-85
2023/11/27 12:13:20;;;;;;;;;;;;;;;12.70;42.15;100676.53;5041611;28;19916;-84
2023/11/27 12:15:46;;;;;;;;;;;;;;;12.71;42.08;100678.97;5046571;28;19928;-84
2023/11/27 12:18:12;;;;;;;;;;;;;;;12.71;41.95;100678.16;5038380;28;19921;-83
2023/11/27 12:20:38;;;;;;;;;;;;;;;12.68;42.07;100674.13;5041613;28;20315;-84
2023/11/27 12:23:04;;;;;;;;;;;;;;;12.66;42.13;100673.59;5043806;28;19939;-84
2023/11/27 12:25:29;;;;;;;;;;;;;;;12.63;41.80;100667.94;5041768;28;19928;-84
2023/11/27 12:27:55;;;;;;;;;;;;;;;12.61;41.90;100668.19;5045094;28;19972;-84
2023/11/27 12:30:20;;;;;;;;;;;;;;;12.52;41.66;100661.69;5041708;28;19917;-84
2023/11/27 12:32:52;;;;;;;;;;;;;;;12.42;42.01;100663.56;5040844;28;19920;-83
2023/11/27 12:35:18;;;;;;;;;;;;;;;12.30;41.66;100659.19;5043301;28;19929;-84
2023/11/27 12:37:44;;;;;;;;;;;;;;;12.18;42.19;100650.53;5039885;28;19928;-84
2023/11/27 12:40:16;;;;;;;;;;;;;;;12.08;42.36;100653.16;5041924;28;19931;-84
2023/11/27 12:42:41;;;;;;;;;;;;;;;11.98;42.36;100648.53;5035492;28;19921;-84